createdAt,value
2023-02-22T00:00:15.461Z,29.652
2023-02-22T00:05:18.778Z,29.653
2023-02-22T00:10:15.655Z,29.657
2023-02-22T00:15:16.159Z,29.661
2023-02-22T00:20:18.886Z,29.663
2023-02-22T00:25:18.660Z,29.667
2023-02-22T00:30:18.634Z,29.670
2023-02-22T00:35:18.591Z,29.671
2023-02-22T00:40:15.512Z,29.672
2023-02-22T00:45:15.681Z,29.674
2023-02-22T00:50:16.152Z,29.674
2023-02-22T00:55:30.673Z,29.677
2023-02-22T01:00:18.742Z,29.679
2023-02-22T01:05:18.656Z,29.682
2023-02-22T01:10:18.628Z,29.680
2023-02-22T01:15:15.506Z,29.682
2023-02-22T01:20:15.530Z,29.685
2023-02-22T01:25:19.125Z,29.688
2023-02-22T01:30:18.693Z,29.689
2023-02-22T01:35:15.683Z,29.693
2023-02-22T01:40:18.653Z,29.694
2023-02-22T01:45:18.591Z,29.701
2023-02-22T01:50:15.741Z,29.699
2023-02-22T01:55:18.665Z,29.698
2023-02-22T02:00:19.123Z,29.701
2023-02-22T02:05:18.660Z,29.708
2023-02-22T02:10:18.635Z,29.709
2023-02-22T02:15:15.691Z,29.714
2023-02-22T02:20:18.659Z,29.712
2023-02-22T02:25:18.689Z,29.716
2023-02-22T02:30:18.671Z,29.719
2023-02-22T02:35:19.106Z,29.721
2023-02-22T02:40:15.819Z,29.725
2023-02-22T02:45:15.735Z,29.729
2023-02-22T02:50:18.733Z,29.729
2023-02-22T02:55:18.628Z,29.728
2023-02-22T03:00:15.723Z,29.729
2023-02-22T03:05:15.697Z,29.732
2023-02-22T03:10:19.224Z,29.736
2023-02-22T03:15:18.741Z,29.740
2023-02-22T03:20:15.733Z,29.742
2023-02-22T03:25:18.685Z,29.740
2023-02-22T03:30:18.755Z,29.742
2023-02-22T03:35:15.761Z,29.738
2023-02-22T03:40:18.777Z,29.737
2023-02-22T03:45:19.039Z,29.738
2023-02-22T03:50:15.718Z,29.741
2023-02-22T03:55:18.756Z,29.742
2023-02-22T04:00:16.015Z,29.749
2023-02-22T04:05:18.711Z,29.753
2023-02-22T04:10:18.746Z,29.758
2023-02-22T04:15:15.806Z,29.756
2023-02-22T04:20:16.288Z,29.760
2023-02-22T04:25:15.764Z,29.762
2023-02-22T04:30:15.766Z,29.772
2023-02-22T04:35:15.607Z,29.778
2023-02-22T04:40:18.806Z,29.780
2023-02-22T04:45:18.773Z,29.780
2023-02-22T04:50:19.169Z,29.782
2023-02-22T04:55:18.743Z,29.785
2023-02-22T05:00:19.986Z,29.785
2023-02-22T05:05:20.030Z,29.787
2023-02-22T05:10:19.960Z,29.790
2023-02-22T05:15:20.037Z,29.794
2023-02-22T05:20:20.506Z,29.796
2023-02-22T05:25:19.969Z,29.800
2023-02-22T05:30:20.028Z,29.806
2023-02-22T05:35:17.117Z,29.809
2023-02-22T05:40:20.074Z,29.809
2023-02-22T05:45:20.024Z,29.815
2023-02-22T05:50:17.082Z,29.815
2023-02-22T05:55:17.416Z,29.817
2023-02-22T06:00:17.121Z,29.821
2023-02-22T06:05:17.086Z,29.824
2023-02-22T06:10:17.080Z,29.827
2023-02-22T06:15:17.070Z,29.831
2023-02-22T06:20:16.890Z,29.827
2023-02-22T06:25:20.563Z,29.827
2023-02-22T06:30:20.153Z,29.829
2023-02-22T06:35:17.124Z,29.830
2023-02-22T06:40:17.119Z,29.832
2023-02-22T06:45:17.165Z,29.833
2023-02-22T06:50:20.068Z,29.839
2023-02-22T06:55:20.081Z,29.841
2023-02-22T07:00:20.414Z,29.842
2023-02-22T07:05:20.120Z,29.841
2023-02-22T07:10:17.173Z,29.841
2023-02-22T07:15:17.293Z,29.842
2023-02-22T07:20:17.138Z,29.845
2023-02-22T07:25:17.174Z,29.849
2023-02-22T07:30:17.185Z,29.851
2023-02-22T07:35:17.342Z,29.855
2023-02-22T07:40:17.086Z,29.856
2023-02-22T07:45:20.121Z,29.857
2023-02-22T07:50:20.091Z,29.861
2023-02-22T07:55:20.112Z,29.861
2023-02-22T08:00:20.091Z,29.860
2023-02-22T08:05:20.472Z,29.864
2023-02-22T08:10:20.180Z,29.871
2023-02-22T08:15:20.138Z,29.875
2023-02-22T08:20:17.178Z,29.877
2023-02-22T08:25:17.179Z,29.881
2023-02-22T08:30:20.204Z,29.880
2023-02-22T08:35:20.159Z,29.882
2023-02-22T08:40:20.504Z,29.888
2023-02-22T08:45:20.113Z,29.896
2023-02-22T08:50:20.175Z,29.897
2023-02-22T08:55:20.109Z,29.904
2023-02-22T09:00:17.157Z,29.910
2023-02-22T09:05:17.207Z,29.915
2023-02-22T09:10:20.132Z,29.919
2023-02-22T09:15:20.465Z,29.922
2023-02-22T09:20:20.154Z,29.923
2023-02-22T09:25:17.617Z,29.929
2023-02-22T09:30:17.212Z,29.932
2023-02-22T09:35:20.315Z,29.937
2023-02-22T09:40:20.237Z,29.941
2023-02-22T09:45:20.171Z,29.943
2023-02-22T09:50:20.542Z,29.944
2023-02-22T09:55:20.153Z,29.947
2023-02-22T10:00:17.163Z,29.949
2023-02-22T10:05:17.236Z,29.948
2023-02-22T10:10:20.210Z,29.947
2023-02-22T10:15:20.145Z,29.949
2023-02-22T10:20:20.232Z,29.952
2023-02-22T10:25:17.566Z,29.953
2023-02-22T10:30:25.078Z,29.952
2023-02-22T10:35:20.245Z,29.955
2023-02-22T10:40:20.249Z,29.961
2023-02-22T10:45:20.221Z,29.962
2023-02-22T10:50:17.289Z,29.970
2023-02-22T10:55:17.235Z,29.968
2023-02-22T11:00:20.678Z,29.969
2023-02-22T11:05:20.320Z,29.972
2023-02-22T11:10:17.148Z,29.974
2023-02-22T11:15:20.227Z,29.971
2023-02-22T11:20:17.248Z,29.971
2023-02-22T11:25:17.266Z,29.975
2023-02-22T11:30:17.240Z,29.975
2023-02-22T11:35:19.263Z,29.977
2023-02-22T11:40:20.335Z,29.981
2023-02-22T11:45:17.282Z,29.991
2023-02-22T11:50:20.356Z,29.996
2023-02-22T11:55:26.748Z,30.000
2023-02-22T12:00:21.492Z,30.004
2023-02-22T12:05:20.647Z,30.012
2023-02-22T12:10:20.233Z,30.015
2023-02-22T12:15:20.285Z,30.023
2023-02-22T12:20:26.529Z,30.025
2023-02-22T12:25:18.248Z,30.030
2023-02-22T12:30:20.368Z,30.036
2023-02-22T12:35:20.218Z,30.039
2023-02-22T12:40:17.687Z,30.044
2023-02-22T12:45:21.005Z,30.048
2023-02-22T12:50:20.304Z,30.051
2023-02-22T12:55:20.392Z,30.050
2023-02-22T13:00:20.330Z,30.052
2023-02-22T13:05:20.316Z,30.051
2023-02-22T13:10:20.599Z,30.055
2023-02-22T13:15:17.368Z,30.058
2023-02-22T13:20:17.286Z,30.059
2023-02-22T13:25:20.305Z,30.053
2023-02-22T13:30:20.352Z,30.058
2023-02-22T13:35:20.301Z,30.058
2023-02-22T13:40:20.257Z,30.059
2023-02-22T13:45:20.639Z,30.058
2023-02-22T13:50:20.282Z,30.057
2023-02-22T13:55:20.298Z,30.059
2023-02-22T14:00:20.294Z,30.066
2023-02-22T14:05:20.291Z,30.058
2023-02-22T14:10:20.302Z,30.052
2023-02-22T14:15:30.230Z,30.050
2023-02-22T14:20:20.658Z,30.052
2023-02-22T14:25:27.992Z,30.052
2023-02-22T14:30:20.296Z,30.051
2023-02-22T14:35:27.432Z,30.046
2023-02-22T14:40:20.329Z,30.052
2023-02-22T14:45:17.415Z,30.049
2023-02-22T14:50:17.385Z,30.048
2023-02-22T14:55:20.823Z,30.054
2023-02-22T15:00:20.429Z,30.063
2023-02-22T15:05:20.281Z,30.062
2023-02-22T15:10:17.348Z,30.065
2023-02-22T15:15:20.317Z,30.066
2023-02-22T15:20:20.309Z,30.067
2023-02-22T15:25:20.343Z,30.073
2023-02-22T15:30:20.778Z,30.075
2023-02-22T15:35:20.301Z,30.085
2023-02-22T15:40:17.376Z,30.085
2023-02-22T15:45:20.349Z,30.086
2023-02-22T15:50:20.329Z,30.090
2023-02-22T15:55:20.380Z,30.083
2023-02-22T16:00:20.432Z,30.079
2023-02-22T16:05:20.767Z,30.076
2023-02-22T16:10:18.401Z,30.064
2023-02-22T16:15:17.358Z,30.059
2023-02-22T16:20:18.375Z,30.062
2023-02-22T16:25:18.325Z,30.053
2023-02-22T16:30:24.369Z,30.051
2023-02-22T16:35:18.401Z,30.054
2023-02-22T16:40:20.868Z,30.056
2023-02-22T16:45:18.318Z,30.064
2023-02-22T16:50:18.358Z,30.071
2023-02-22T16:55:18.346Z,30.073
2023-02-22T17:00:18.393Z,30.077
2023-02-22T17:05:18.452Z,30.084
2023-02-22T17:10:15.409Z,30.084
2023-02-22T17:15:18.910Z,30.081
2023-02-22T17:20:18.430Z,30.082
2023-02-22T17:25:18.365Z,30.077
2023-02-22T17:30:15.440Z,30.067
2023-02-22T17:35:18.408Z,30.064
2023-02-22T17:40:37.096Z,30.069
2023-02-22T17:45:18.397Z,30.063
2023-02-22T17:50:18.715Z,30.067
2023-02-22T17:55:18.396Z,30.068
2023-02-22T18:00:18.392Z,30.057
2023-02-22T18:05:18.365Z,30.061
2023-02-22T18:10:15.439Z,30.058
2023-02-22T18:15:18.441Z,30.068
2023-02-22T18:20:18.392Z,30.065
2023-02-22T18:25:18.928Z,30.066
2023-02-22T18:30:18.410Z,30.062
2023-02-22T18:35:15.286Z,30.059
2023-02-22T18:40:15.534Z,30.057
2023-02-22T18:45:18.496Z,30.057
2023-02-22T18:50:18.427Z,30.063
2023-02-22T18:55:18.448Z,30.060
2023-02-22T19:00:18.833Z,30.054
2023-02-22T19:05:18.425Z,30.050
2023-02-22T19:10:18.430Z,30.055
2023-02-22T19:15:15.341Z,30.052
2023-02-22T19:20:15.499Z,30.054
2023-02-22T19:25:18.510Z,30.055
2023-02-22T19:30:15.532Z,30.060
2023-02-22T19:35:15.874Z,30.061
2023-02-22T19:40:18.488Z,30.052
2023-02-22T19:45:18.430Z,30.054
2023-02-22T19:50:18.451Z,30.057
2023-02-22T19:55:15.351Z,30.060
2023-02-22T20:00:18.527Z,30.057
2023-02-22T20:05:15.500Z,30.058
2023-02-22T20:10:19.049Z,30.065
2023-02-22T20:15:18.465Z,30.070
2023-02-22T20:20:18.509Z,30.071
2023-02-22T20:25:15.509Z,30.073
2023-02-22T20:30:15.520Z,30.072
2023-02-22T20:35:15.490Z,30.074
2023-02-22T20:40:18.507Z,30.072
2023-02-22T20:45:15.923Z,30.074
2023-02-22T20:50:18.535Z,30.075
2023-02-22T20:55:15.491Z,30.075
2023-02-22T21:00:18.498Z,30.076
2023-02-22T21:05:15.543Z,30.077
2023-02-22T21:10:15.564Z,30.086
2023-02-22T21:15:19.233Z,30.093
2023-02-22T21:20:18.510Z,30.097
2023-02-22T21:25:18.514Z,30.098
2023-02-22T21:30:18.526Z,30.098
2023-02-22T21:35:18.534Z,30.099
2023-02-22T21:40:18.551Z,30.094
2023-02-22T21:45:18.544Z,30.093
2023-02-22T21:50:18.896Z,30.095
2023-02-22T21:55:15.550Z,30.096
2023-02-22T22:00:18.836Z,30.094
2023-02-22T22:05:15.635Z,30.090
2023-02-22T22:10:15.572Z,30.088
2023-02-22T22:15:15.553Z,30.088
2023-02-22T22:20:15.559Z,30.082
2023-02-22T22:25:19.095Z,30.081
2023-02-22T22:30:18.599Z,30.082
2023-02-22T22:35:15.376Z,30.090
2023-02-22T22:40:18.590Z,30.090
2023-02-22T22:45:15.594Z,30.092
2023-02-22T22:50:15.667Z,30.094
2023-02-22T22:55:15.607Z,30.093
2023-02-22T23:00:15.925Z,30.096
2023-02-22T23:05:18.659Z,30.099
2023-02-22T23:10:18.575Z,30.100
2023-02-22T23:15:18.561Z,30.102
2023-02-22T23:20:18.531Z,30.103
2023-02-22T23:25:18.579Z,30.100
2023-02-22T23:30:18.922Z,30.099
2023-02-22T23:35:18.606Z,30.100
2023-02-22T23:40:18.560Z,30.098
2023-02-22T23:45:18.564Z,30.096
2023-02-22T23:50:15.381Z,30.100
2023-02-22T23:55:15.460Z,30.100
